sensor_id;sensor_type;location;lat;lon;timestamp;P1;durP1;ratioP1;P2;durP2;ratioP2
67193;SDS011;54121;53.508;49.422;2023-03-01T01:00:39;8.95;;;5.75;;
67193;SDS011;54121;53.508;49.422;2023-03-01T04:31:22;7.90;;;4.28;;
67193;SDS011;54121;53.508;49.422;2023-03-01T04:33:52;8.25;;;5.38;;
67193;SDS011;54121;53.508;49.422;2023-03-01T04:36:24;9.65;;;6.25;;
67193;SDS011;54121;53.508;49.422;2023-03-01T04:38:53;12.90;;;6.43;;
67193;SDS011;54121;53.508;49.422;2023-03-01T04:41:22;9.02;;;5.35;;
67193;SDS011;54121;53.508;49.422;2023-03-01T04:43:50;7.57;;;5.40;;
67193;SDS011;54121;53.508;49.422;2023-03-01T04:46:18;10.38;;;5.63;;
67193;SDS011;54121;53.508;49.422;2023-03-01T04:48:46;6.93;;;4.57;;
67193;SDS011;54121;53.508;49.422;2023-03-01T04:51:13;11.98;;;7.70;;
67193;SDS011;54121;53.508;49.422;2023-03-01T04:53:41;7.55;;;5.18;;
67193;SDS011;54121;53.508;49.422;2023-03-01T04:56:11;7.93;;;4.85;;
67193;SDS011;54121;53.508;49.422;2023-03-01T04:58:40;5.37;;;4.33;;
67193;SDS011;54121;53.508;49.422;2023-03-01T05:01:08;7.13;;;4.88;;
67193;SDS011;54121;53.508;49.422;2023-03-01T05:03:41;7.20;;;4.88;;
67193;SDS011;54121;53.508;49.422;2023-03-01T05:06:18;9.20;;;4.95;;
67193;SDS011;54121;53.508;49.422;2023-03-01T05:08:46;6.72;;;5.13;;
67193;SDS011;54121;53.508;49.422;2023-03-01T05:11:13;7.57;;;5.30;;
67193;SDS011;54121;53.508;49.422;2023-03-01T05:13:40;10.32;;;5.72;;
67193;SDS011;54121;53.508;49.422;2023-03-01T05:16:07;6.53;;;3.35;;
67193;SDS011;54121;53.508;49.422;2023-03-01T05:18:36;9.38;;;4.63;;
67193;SDS011;54121;53.508;49.422;2023-03-01T05:21:04;8.07;;;4.35;;
67193;SDS011;54121;53.508;49.422;2023-03-01T05:23:43;7.30;;;4.40;;
67193;SDS011;54121;53.508;49.422;2023-03-01T05:26:11;10.90;;;5.38;;
67193;SDS011;54121;53.508;49.422;2023-03-01T05:28:38;8.27;;;5.10;;
67193;SDS011;54121;53.508;49.422;2023-03-01T05:31:05;8.95;;;4.68;;
67193;SDS011;54121;53.508;49.422;2023-03-01T05:33:35;7.60;;;4.53;;
67193;SDS011;54121;53.508;49.422;2023-03-01T05:36:09;10.95;;;5.57;;
67193;SDS011;54121;53.508;49.422;2023-03-01T05:38:36;8.10;;;4.80;;
67193;SDS011;54121;53.508;49.422;2023-03-01T05:41:02;7.53;;;5.18;;
67193;SDS011;54121;53.508;49.422;2023-03-01T05:43:31;9.13;;;5.57;;
67193;SDS011;54121;53.508;49.422;2023-03-01T05:45:59;7.03;;;4.22;;
67193;SDS011;54121;53.508;49.422;2023-03-01T05:48:26;6.88;;;4.60;;
67193;SDS011;54121;53.508;49.422;2023-03-01T05:50:52;8.48;;;5.55;;
67193;SDS011;54121;53.508;49.422;2023-03-01T05:53:19;11.57;;;6.40;;
67193;SDS011;54121;53.508;49.422;2023-03-01T05:55:48;6.65;;;4.47;;
67193;SDS011;54121;53.508;49.422;2023-03-01T05:58:16;7.97;;;5.00;;
67193;SDS011;54121;53.508;49.422;2023-03-01T06:00:44;6.47;;;5.22;;
67193;SDS011;54121;53.508;49.422;2023-03-01T06:03:13;8.52;;;5.38;;
67193;SDS011;54121;53.508;49.422;2023-03-01T06:05:41;9.75;;;6.05;;
67193;SDS011;54121;53.508;49.422;2023-03-01T06:08:08;7.63;;;5.63;;
67193;SDS011;54121;53.508;49.422;2023-03-01T06:10:36;7.05;;;4.55;;
67193;SDS011;54121;53.508;49.422;2023-03-01T06:13:03;9.95;;;5.55;;
67193;SDS011;54121;53.508;49.422;2023-03-01T06:15:30;10.43;;;4.65;;
67193;SDS011;54121;53.508;49.422;2023-03-01T06:17:57;9.05;;;4.95;;
67193;SDS011;54121;53.508;49.422;2023-03-01T06:20:24;7.03;;;4.63;;
67193;SDS011;54121;53.508;49.422;2023-03-01T06:22:52;7.82;;;5.80;;
67193;SDS011;54121;53.508;49.422;2023-03-01T06:25:20;6.60;;;4.25;;
67193;SDS011;54121;53.508;49.422;2023-03-01T06:27:48;7.95;;;4.97;;
67193;SDS011;54121;53.508;49.422;2023-03-01T06:30:18;7.85;;;4.85;;
67193;SDS011;54121;53.508;49.422;2023-03-01T06:32:49;8.40;;;5.20;;
67193;SDS011;54121;53.508;49.422;2023-03-01T06:35:16;5.63;;;4.15;;
67193;SDS011;54121;53.508;49.422;2023-03-01T06:37:44;8.57;;;4.90;;
67193;SDS011;54121;53.508;49.422;2023-03-01T06:40:12;6.28;;;4.55;;
67193;SDS011;54121;53.508;49.422;2023-03-01T06:42:40;5.72;;;3.55;;
67193;SDS011;54121;53.508;49.422;2023-03-01T06:45:09;5.85;;;3.03;;
67193;SDS011;54121;53.508;49.422;2023-03-01T06:47:36;7.03;;;4.25;;
67193;SDS011;54121;53.508;49.422;2023-03-01T06:50:03;5.97;;;4.18;;
67193;SDS011;54121;53.508;49.422;2023-03-01T06:52:30;4.40;;;3.17;;
67193;SDS011;54121;53.508;49.422;2023-03-01T06:54:57;4.38;;;2.28;;
67193;SDS011;54121;53.508;49.422;2023-03-01T06:57:23;6.10;;;4.22;;
67193;SDS011;54121;53.508;49.422;2023-03-01T06:59:50;3.58;;;2.10;;
67193;SDS011;54121;53.508;49.422;2023-03-01T07:02:17;58.15;;;5.65;;
67193;SDS011;54121;53.508;49.422;2023-03-01T07:04:43;8.18;;;2.85;;
67193;SDS011;54121;53.508;49.422;2023-03-01T07:07:10;8.13;;;2.45;;
67193;SDS011;54121;53.508;49.422;2023-03-01T07:09:37;7.20;;;2.75;;
67193;SDS011;54121;53.508;49.422;2023-03-01T07:12:04;4.88;;;1.73;;
67193;SDS011;54121;53.508;49.422;2023-03-01T07:14:31;6.78;;;2.53;;
67193;SDS011;54121;53.508;49.422;2023-03-01T07:16:57;5.03;;;2.50;;
67193;SDS011;54121;53.508;49.422;2023-03-01T07:19:24;6.50;;;2.55;;
67193;SDS011;54121;53.508;49.422;2023-03-01T07:21:51;8.38;;;2.97;;
67193;SDS011;54121;53.508;49.422;2023-03-01T07:24:21;5.57;;;2.23;;
67193;SDS011;54121;53.508;49.422;2023-03-01T07:26:49;5.70;;;1.75;;
67193;SDS011;54121;53.508;49.422;2023-03-01T07:29:17;4.80;;;2.20;;
67193;SDS011;54121;53.508;49.422;2023-03-01T07:31:45;3.33;;;1.63;;
67193;SDS011;54121;53.508;49.422;2023-03-01T07:34:12;2.65;;;1.40;;
67193;SDS011;54121;53.508;49.422;2023-03-01T07:36:39;5.88;;;1.83;;
67193;SDS011;54121;53.508;49.422;2023-03-01T07:39:09;4.93;;;2.08;;
67193;SDS011;54121;53.508;49.422;2023-03-01T07:41:36;3.47;;;2.08;;
67193;SDS011;54121;53.508;49.422;2023-03-01T07:44:03;4.43;;;1.80;;
67193;SDS011;54121;53.508;49.422;2023-03-01T07:46:30;7.38;;;2.00;;
67193;SDS011;54121;53.508;49.422;2023-03-01T07:48:57;4.50;;;2.25;;
67193;SDS011;54121;53.508;49.422;2023-03-01T07:51:24;5.13;;;2.00;;
67193;SDS011;54121;53.508;49.422;2023-03-01T07:53:51;4.22;;;2.03;;
67193;SDS011;54121;53.508;49.422;2023-03-01T07:56:18;5.28;;;2.30;;
67193;SDS011;54121;53.508;49.422;2023-03-01T07:58:45;5.18;;;2.22;;
67193;SDS011;54121;53.508;49.422;2023-03-01T08:01:13;5.35;;;2.25;;
67193;SDS011;54121;53.508;49.422;2023-03-01T08:03:42;5.13;;;2.90;;
67193;SDS011;54121;53.508;49.422;2023-03-01T08:06:10;10.02;;;4.40;;
67193;SDS011;54121;53.508;49.422;2023-03-01T08:08:37;7.47;;;3.28;;
67193;SDS011;54121;53.508;49.422;2023-03-01T08:11:05;9.10;;;2.90;;
67193;SDS011;54121;53.508;49.422;2023-03-01T08:13:33;9.02;;;3.13;;
67193;SDS011;54121;53.508;49.422;2023-03-01T08:16:01;3.10;;;1.80;;
67193;SDS011;54121;53.508;49.422;2023-03-01T08:18:32;3.83;;;1.70;;
67193;SDS011;54121;53.508;49.422;2023-03-01T08:21:03;6.38;;;3.35;;
67193;SDS011;54121;53.508;49.422;2023-03-01T08:23:40;4.22;;;2.38;;
67193;SDS011;54121;53.508;49.422;2023-03-01T08:26:09;6.95;;;2.85;;
67193;SDS011;54121;53.508;49.422;2023-03-01T08:28:40;7.68;;;3.13;;
67193;SDS011;54121;53.508;49.422;2023-03-01T08:31:14;3.45;;;1.80;;
67193;SDS011;54121;53.508;49.422;2023-03-01T08:33:42;4.28;;;2.17;;
67193;SDS011;54121;53.508;49.422;2023-03-01T08:36:09;7.15;;;2.40;;
67193;SDS011;54121;53.508;49.422;2023-03-01T08:38:36;2.85;;;1.60;;
67193;SDS011;54121;53.508;49.422;2023-03-01T08:41:02;3.85;;;1.52;;
67193;SDS011;54121;53.508;49.422;2023-03-01T08:43:29;4.07;;;1.83;;
67193;SDS011;54121;53.508;49.422;2023-03-01T08:45:56;7.47;;;2.58;;
67193;SDS011;54121;53.508;49.422;2023-03-01T08:48:23;5.95;;;2.10;;
67193;SDS011;54121;53.508;49.422;2023-03-01T08:50:50;4.07;;;2.13;;
67193;SDS011;54121;53.508;49.422;2023-03-01T08:53:19;6.07;;;1.77;;
67193;SDS011;54121;53.508;49.422;2023-03-01T08:55:45;3.60;;;1.33;;
67193;SDS011;54121;53.508;49.422;2023-03-01T08:58:12;4.32;;;1.33;;
67193;SDS011;54121;53.508;49.422;2023-03-01T09:00:39;2.60;;;1.20;;
67193;SDS011;54121;53.508;49.422;2023-03-01T09:03:06;2.63;;;1.20;;
67193;SDS011;54121;53.508;49.422;2023-03-01T09:05:33;2.38;;;1.10;;
67193;SDS011;54121;53.508;49.422;2023-03-01T09:08:02;2.70;;;1.17;;
67193;SDS011;54121;53.508;49.422;2023-03-01T09:10:28;4.07;;;1.65;;
67193;SDS011;54121;53.508;49.422;2023-03-01T09:12:55;3.97;;;1.52;;
67193;SDS011;54121;53.508;49.422;2023-03-01T09:15:21;7.05;;;1.60;;
67193;SDS011;54121;53.508;49.422;2023-03-01T09:17:48;5.82;;;2.10;;
67193;SDS011;54121;53.508;49.422;2023-03-01T09:20:14;6.97;;;1.85;;
67193;SDS011;54121;53.508;49.422;2023-03-01T09:22:41;2.83;;;1.40;;
67193;SDS011;54121;53.508;49.422;2023-03-01T09:25:09;3.78;;;1.60;;
67193;SDS011;54121;53.508;49.422;2023-03-01T09:27:36;2.55;;;1.23;;
67193;SDS011;54121;53.508;49.422;2023-03-01T09:30:02;9.65;;;2.70;;
67193;SDS011;54121;53.508;49.422;2023-03-01T09:32:30;9.57;;;1.98;;
67193;SDS011;54121;53.508;49.422;2023-03-01T09:34:57;6.38;;;1.63;;
67193;SDS011;54121;53.508;49.422;2023-03-01T09:37:32;4.15;;;1.55;;
67193;SDS011;54121;53.508;49.422;2023-03-01T09:39:59;3.90;;;1.55;;
67193;SDS011;54121;53.508;49.422;2023-03-01T09:42:27;4.35;;;1.30;;
67193;SDS011;54121;53.508;49.422;2023-03-01T09:45:15;8.05;;;1.88;;
67193;SDS011;54121;53.508;49.422;2023-03-01T09:47:50;4.32;;;1.65;;
67193;SDS011;54121;53.508;49.422;2023-03-01T09:50:18;3.60;;;1.20;;
67193;SDS011;54121;53.508;49.422;2023-03-01T09:55:54;2.67;;;1.38;;
67193;SDS011;54121;53.508;49.422;2023-03-01T10:01:15;4.25;;;1.80;;
67193;SDS011;54121;53.508;49.422;2023-03-01T10:09:46;5.63;;;1.70;;
67193;SDS011;54121;53.508;49.422;2023-03-01T10:12:15;6.72;;;1.90;;
67193;SDS011;54121;53.508;49.422;2023-03-01T10:20:20;5.82;;;2.20;;
67193;SDS011;54121;53.508;49.422;2023-03-01T10:22:49;4.22;;;1.63;;
67193;SDS011;54121;53.508;49.422;2023-03-01T10:25:23;3.65;;;1.45;;
67193;SDS011;54121;53.508;49.422;2023-03-01T10:28:29;9.43;;;1.92;;
67193;SDS011;54121;53.508;49.422;2023-03-01T10:30:56;4.43;;;1.70;;
67193;SDS011;54121;53.508;49.422;2023-03-01T10:33:26;4.13;;;1.48;;
67193;SDS011;54121;53.508;49.422;2023-03-01T10:35:57;5.38;;;1.65;;
67193;SDS011;54121;53.508;49.422;2023-03-01T10:38:24;9.02;;;1.92;;
67193;SDS011;54121;53.508;49.422;2023-03-01T10:40:55;10.65;;;2.83;;
67193;SDS011;54121;53.508;49.422;2023-03-01T10:43:23;4.22;;;1.55;;
67193;SDS011;54121;53.508;49.422;2023-03-01T10:46:30;4.63;;;1.80;;
67193;SDS011;54121;53.508;49.422;2023-03-01T10:51:43;3.50;;;1.45;;
67193;SDS011;54121;53.508;49.422;2023-03-01T10:54:19;6.00;;;1.60;;
67193;SDS011;54121;53.508;49.422;2023-03-01T10:56:47;3.72;;;1.60;;
67193;SDS011;54121;53.508;49.422;2023-03-01T10:59:24;3.10;;;1.48;;
67193;SDS011;54121;53.508;49.422;2023-03-01T11:05:02;3.55;;;1.67;;
67193;SDS011;54121;53.508;49.422;2023-03-01T11:10:19;5.28;;;1.45;;
67193;SDS011;54121;53.508;49.422;2023-03-01T11:12:53;8.50;;;1.25;;
67193;SDS011;54121;53.508;49.422;2023-03-01T11:15:33;5.25;;;1.75;;
67193;SDS011;54121;53.508;49.422;2023-03-01T11:18:00;5.75;;;1.95;;
67193;SDS011;54121;53.508;49.422;2023-03-01T11:20:46;5.43;;;1.58;;
67193;SDS011;54121;53.508;49.422;2023-03-01T11:23:14;4.32;;;1.30;;
67193;SDS011;54121;53.508;49.422;2023-03-01T11:25:43;7.40;;;2.10;;
67193;SDS011;54121;53.508;49.422;2023-03-01T11:28:16;2.83;;;1.40;;
67193;SDS011;54121;53.508;49.422;2023-03-01T11:36:05;3.83;;;1.77;;
67193;SDS011;54121;53.508;49.422;2023-03-01T11:38:53;5.28;;;1.60;;
67193;SDS011;54121;53.508;49.422;2023-03-01T11:41:31;4.50;;;1.40;;
67193;SDS011;54121;53.508;49.422;2023-03-01T11:44:10;5.13;;;1.20;;
67193;SDS011;54121;53.508;49.422;2023-03-01T11:47:11;4.50;;;1.85;;
67193;SDS011;54121;53.508;49.422;2023-03-01T11:49:57;9.60;;;1.98;;
67193;SDS011;54121;53.508;49.422;2023-03-01T12:17:05;10.32;;;2.13;;
67193;SDS011;54121;53.508;49.422;2023-03-01T12:22:47;4.65;;;1.80;;
67193;SDS011;54121;53.508;49.422;2023-03-01T12:28:16;8.00;;;2.60;;
67193;SDS011;54121;53.508;49.422;2023-03-01T12:31:00;8.73;;;2.63;;
67193;SDS011;54121;53.508;49.422;2023-03-01T12:33:53;7.43;;;2.55;;
67193;SDS011;54121;53.508;49.422;2023-03-01T12:45:48;5.63;;;2.10;;
67193;SDS011;54121;53.508;49.422;2023-03-01T12:51:23;4.35;;;2.08;;
67193;SDS011;54121;53.508;49.422;2023-03-01T12:53:53;5.45;;;1.58;;
67193;SDS011;54121;53.508;49.422;2023-03-01T12:56:24;3.83;;;1.60;;
67193;SDS011;54121;53.508;49.422;2023-03-01T12:58:57;5.00;;;1.50;;
67193;SDS011;54121;53.508;49.422;2023-03-01T13:07:41;10.15;;;3.40;;
67193;SDS011;54121;53.508;49.422;2023-03-01T13:10:26;8.48;;;3.92;;
67193;SDS011;54121;53.508;49.422;2023-03-01T13:15:38;8.85;;;3.15;;
67193;SDS011;54121;53.508;49.422;2023-03-01T13:23:12;12.80;;;4.97;;
67193;SDS011;54121;53.508;49.422;2023-03-01T13:26:31;11.02;;;3.92;;
67193;SDS011;54121;53.508;49.422;2023-03-01T13:33:41;13.57;;;3.67;;
67193;SDS011;54121;53.508;49.422;2023-03-01T13:36:11;9.25;;;2.60;;
67193;SDS011;54121;53.508;49.422;2023-03-01T13:41:49;4.28;;;1.60;;
67193;SDS011;54121;53.508;49.422;2023-03-01T13:46:59;6.20;;;1.27;;
67193;SDS011;54121;53.508;49.422;2023-03-01T13:57:50;7.78;;;2.13;;
67193;SDS011;54121;53.508;49.422;2023-03-01T14:00:31;4.80;;;1.63;;
67193;SDS011;54121;53.508;49.422;2023-03-01T14:03:00;5.90;;;1.85;;
67193;SDS011;54121;53.508;49.422;2023-03-01T14:05:34;4.90;;;1.70;;
67193;SDS011;54121;53.508;49.422;2023-03-01T14:08:05;5.05;;;1.73;;
67193;SDS011;54121;53.508;49.422;2023-03-01T14:10:54;5.80;;;1.48;;
67193;SDS011;54121;53.508;49.422;2023-03-01T14:19:23;4.55;;;1.20;;
67193;SDS011;54121;53.508;49.422;2023-03-01T14:22:25;4.35;;;1.08;;
67193;SDS011;54121;53.508;49.422;2023-03-01T14:24:52;4.95;;;1.23;;
67193;SDS011;54121;53.508;49.422;2023-03-01T14:27:22;5.30;;;1.30;;
67193;SDS011;54121;53.508;49.422;2023-03-01T14:29:56;6.45;;;1.40;;
67193;SDS011;54121;53.508;49.422;2023-03-01T14:32:26;3.72;;;1.33;;
67193;SDS011;54121;53.508;49.422;2023-03-01T14:34:55;6.63;;;2.15;;
67193;SDS011;54121;53.508;49.422;2023-03-01T14:39:55;6.43;;;2.33;;
67193;SDS011;54121;53.508;49.422;2023-03-01T14:42:23;10.68;;;3.35;;
67193;SDS011;54121;53.508;49.422;2023-03-01T14:44:54;11.00;;;2.92;;
67193;SDS011;54121;53.508;49.422;2023-03-01T14:47:29;11.63;;;3.27;;
67193;SDS011;54121;53.508;49.422;2023-03-01T14:50:02;7.18;;;2.80;;
67193;SDS011;54121;53.508;49.422;2023-03-01T14:52:39;8.55;;;2.45;;
67193;SDS011;54121;53.508;49.422;2023-03-01T14:55:18;6.15;;;2.03;;
67193;SDS011;54121;53.508;49.422;2023-03-01T14:57:48;5.05;;;1.42;;
67193;SDS011;54121;53.508;49.422;2023-03-01T15:02:46;5.72;;;1.75;;
67193;SDS011;54121;53.508;49.422;2023-03-01T15:05:15;3.60;;;1.50;;
67193;SDS011;54121;53.508;49.422;2023-03-01T15:07:44;5.50;;;1.50;;
67193;SDS011;54121;53.508;49.422;2023-03-01T15:10:22;5.82;;;1.52;;
67193;SDS011;54121;53.508;49.422;2023-03-01T15:12:50;3.85;;;1.00;;
67193;SDS011;54121;53.508;49.422;2023-03-01T15:15:19;3.28;;;1.00;;
67193;SDS011;54121;53.508;49.422;2023-03-01T15:18:21;3.75;;;0.80;;
67193;SDS011;54121;53.508;49.422;2023-03-01T15:20:48;2.10;;;0.75;;
67193;SDS011;54121;53.508;49.422;2023-03-01T15:23:25;2.17;;;0.85;;
67193;SDS011;54121;53.508;49.422;2023-03-01T15:25:54;3.65;;;1.00;;
67193;SDS011;54121;53.508;49.422;2023-03-01T15:28:48;4.57;;;1.15;;
67193;SDS011;54121;53.508;49.422;2023-03-01T15:33:48;4.15;;;1.50;;
67193;SDS011;54121;53.508;49.422;2023-03-01T15:39:01;5.22;;;1.25;;
67193;SDS011;54121;53.508;49.422;2023-03-01T15:41:36;5.80;;;1.98;;
67193;SDS011;54121;53.508;49.422;2023-03-01T15:44:16;7.63;;;1.88;;
67193;SDS011;54121;53.508;49.422;2023-03-01T15:46:47;6.22;;;2.13;;
67193;SDS011;54121;53.508;49.422;2023-03-01T15:52:10;8.18;;;2.97;;
67193;SDS011;54121;53.508;49.422;2023-03-01T15:54:43;5.97;;;2.58;;
67193;SDS011;54121;53.508;49.422;2023-03-01T15:57:14;8.88;;;2.78;;
67193;SDS011;54121;53.508;49.422;2023-03-01T15:59:41;5.72;;;2.35;;
67193;SDS011;54121;53.508;49.422;2023-03-01T16:02:10;3.42;;;1.40;;
67193;SDS011;54121;53.508;49.422;2023-03-01T16:04:38;6.10;;;1.30;;
67193;SDS011;54121;53.508;49.422;2023-03-01T16:07:05;2.45;;;0.82;;
67193;SDS011;54121;53.508;49.422;2023-03-01T16:09:32;2.58;;;0.68;;
67193;SDS011;54121;53.508;49.422;2023-03-01T16:11:59;5.65;;;1.17;;
67193;SDS011;54121;53.508;49.422;2023-03-01T16:14:27;5.75;;;1.25;;
67193;SDS011;54121;53.508;49.422;2023-03-01T16:16:54;2.35;;;0.63;;
67193;SDS011;54121;53.508;49.422;2023-03-01T16:19:21;3.67;;;1.60;;
67193;SDS011;54121;53.508;49.422;2023-03-01T16:21:48;6.00;;;0.85;;
67193;SDS011;54121;53.508;49.422;2023-03-01T16:24:16;2.75;;;0.90;;
67193;SDS011;54121;53.508;49.422;2023-03-01T16:26:43;2.40;;;0.90;;
67193;SDS011;54121;53.508;49.422;2023-03-01T16:29:10;1.75;;;0.63;;
67193;SDS011;54121;53.508;49.422;2023-03-01T16:31:37;3.40;;;0.82;;
67193;SDS011;54121;53.508;49.422;2023-03-01T16:34:04;4.50;;;1.13;;
67193;SDS011;54121;53.508;49.422;2023-03-01T16:36:31;5.80;;;1.48;;
67193;SDS011;54121;53.508;49.422;2023-03-01T16:38:58;8.18;;;2.88;;
67193;SDS011;54121;53.508;49.422;2023-03-01T16:41:29;4.18;;;1.45;;
67193;SDS011;54121;53.508;49.422;2023-03-01T16:43:57;4.65;;;0.90;;
67193;SDS011;54121;53.508;49.422;2023-03-01T16:46:25;5.18;;;1.05;;
67193;SDS011;54121;53.508;49.422;2023-03-01T16:48:54;2.00;;;0.98;;
67193;SDS011;54121;53.508;49.422;2023-03-01T16:51:22;3.50;;;1.02;;
67193;SDS011;54121;53.508;49.422;2023-03-01T16:53:49;4.93;;;1.00;;
67193;SDS011;54121;53.508;49.422;2023-03-01T16:56:17;1.63;;;0.75;;
67193;SDS011;54121;53.508;49.422;2023-03-01T16:58:46;2.17;;;0.70;;
67193;SDS011;54121;53.508;49.422;2023-03-01T17:01:17;3.10;;;0.88;;
67193;SDS011;54121;53.508;49.422;2023-03-01T17:03:46;2.63;;;1.13;;
67193;SDS011;54121;53.508;49.422;2023-03-01T17:06:16;6.40;;;0.93;;
67193;SDS011;54121;53.508;49.422;2023-03-01T17:08:46;2.03;;;0.63;;
67193;SDS011;54121;53.508;49.422;2023-03-01T17:11:13;2.20;;;0.90;;
67193;SDS011;54121;53.508;49.422;2023-03-01T17:13:42;2.13;;;0.70;;
67193;SDS011;54121;53.508;49.422;2023-03-01T17:16:11;5.97;;;1.05;;
67193;SDS011;54121;53.508;49.422;2023-03-01T17:18:39;1.80;;;0.73;;
67193;SDS011;54121;53.508;49.422;2023-03-01T17:21:06;2.53;;;0.80;;
67193;SDS011;54121;53.508;49.422;2023-03-01T17:23:34;2.80;;;0.80;;
67193;SDS011;54121;53.508;49.422;2023-03-01T17:26:03;5.95;;;0.60;;
67193;SDS011;54121;53.508;49.422;2023-03-01T17:28:30;3.15;;;1.05;;
67193;SDS011;54121;53.508;49.422;2023-03-01T17:31:00;2.38;;;0.70;;
67193;SDS011;54121;53.508;49.422;2023-03-01T17:33:29;2.08;;;1.10;;
67193;SDS011;54121;53.508;49.422;2023-03-01T17:35:56;7.40;;;1.10;;
67193;SDS011;54121;53.508;49.422;2023-03-01T17:38:24;3.63;;;0.93;;
67193;SDS011;54121;53.508;49.422;2023-03-01T17:40:51;2.50;;;0.82;;
67193;SDS011;54121;53.508;49.422;2023-03-01T17:43:18;3.40;;;0.85;;
67193;SDS011;54121;53.508;49.422;2023-03-01T17:45:45;1.42;;;0.50;;
67193;SDS011;54121;53.508;49.422;2023-03-01T17:48:16;5.22;;;1.00;;
67193;SDS011;54121;53.508;49.422;2023-03-01T17:50:43;5.03;;;1.08;;
67193;SDS011;54121;53.508;49.422;2023-03-01T17:53:10;2.80;;;0.70;;
67193;SDS011;54121;53.508;49.422;2023-03-01T17:55:38;4.65;;;0.68;;
67193;SDS011;54121;53.508;49.422;2023-03-01T17:58:07;4.43;;;1.10;;
67193;SDS011;54121;53.508;49.422;2023-03-01T18:00:35;1.55;;;0.80;;
67193;SDS011;54121;53.508;49.422;2023-03-01T18:03:02;1.77;;;0.75;;
67193;SDS011;54121;53.508;49.422;2023-03-01T18:05:34;6.25;;;1.17;;
67193;SDS011;54121;53.508;49.422;2023-03-01T18:08:02;3.22;;;0.68;;
67193;SDS011;54121;53.508;49.422;2023-03-01T18:10:31;7.68;;;1.08;;
67193;SDS011;54121;53.508;49.422;2023-03-01T18:13:02;1.35;;;0.63;;
67193;SDS011;54121;53.508;49.422;2023-03-01T18:15:30;5.63;;;0.85;;
67193;SDS011;54121;53.508;49.422;2023-03-01T18:17:57;3.17;;;0.80;;
67193;SDS011;54121;53.508;49.422;2023-03-01T18:20:24;4.47;;;1.40;;
67193;SDS011;54121;53.508;49.422;2023-03-01T18:22:52;2.00;;;0.70;;
67193;SDS011;54121;53.508;49.422;2023-03-01T18:25:19;3.20;;;0.90;;
67193;SDS011;54121;53.508;49.422;2023-03-01T18:27:46;1.52;;;0.40;;
67193;SDS011;54121;53.508;49.422;2023-03-01T18:30:13;2.15;;;1.00;;
67193;SDS011;54121;53.508;49.422;2023-03-01T18:32:40;3.40;;;0.68;;
67193;SDS011;54121;53.508;49.422;2023-03-01T18:35:07;1.23;;;0.70;;
67193;SDS011;54121;53.508;49.422;2023-03-01T18:37:33;7.43;;;1.92;;
67193;SDS011;54121;53.508;49.422;2023-03-01T18:40:00;5.80;;;2.15;;
67193;SDS011;54121;53.508;49.422;2023-03-01T18:42:26;4.05;;;1.67;;
67193;SDS011;54121;53.508;49.422;2023-03-01T18:44:53;9.80;;;1.95;;
67193;SDS011;54121;53.508;49.422;2023-03-01T18:47:19;3.00;;;0.90;;
67193;SDS011;54121;53.508;49.422;2023-03-01T18:49:46;2.90;;;1.63;;
67193;SDS011;54121;53.508;49.422;2023-03-01T18:52:12;5.43;;;0.90;;
67193;SDS011;54121;53.508;49.422;2023-03-01T18:54:39;1.48;;;0.50;;
67193;SDS011;54121;53.508;49.422;2023-03-01T18:57:05;2.45;;;0.80;;
67193;SDS011;54121;53.508;49.422;2023-03-01T18:59:32;2.25;;;0.50;;
67193;SDS011;54121;53.508;49.422;2023-03-01T19:02:00;2.15;;;0.60;;
67193;SDS011;54121;53.508;49.422;2023-03-01T19:04:27;5.18;;;1.25;;
67193;SDS011;54121;53.508;49.422;2023-03-01T19:06:54;1.90;;;0.60;;
67193;SDS011;54121;53.508;49.422;2023-03-01T19:09:21;2.72;;;0.60;;
67193;SDS011;54121;53.508;49.422;2023-03-01T19:11:48;5.55;;;1.42;;
67193;SDS011;54121;53.508;49.422;2023-03-01T19:14:14;3.20;;;1.27;;
67193;SDS011;54121;53.508;49.422;2023-03-01T19:16:41;3.65;;;0.90;;
67193;SDS011;54121;53.508;49.422;2023-03-01T19:19:07;6.75;;;2.95;;
67193;SDS011;54121;53.508;49.422;2023-03-01T19:21:34;1.80;;;0.68;;
67193;SDS011;54121;53.508;49.422;2023-03-01T19:24:01;9.60;;;3.58;;
67193;SDS011;54121;53.508;49.422;2023-03-01T19:26:29;11.13;;;3.83;;
67193;SDS011;54121;53.508;49.422;2023-03-01T19:28:56;8.43;;;2.00;;
67193;SDS011;54121;53.508;49.422;2023-03-01T19:31:23;3.47;;;0.95;;
67193;SDS011;54121;53.508;49.422;2023-03-01T19:33:53;11.48;;;4.20;;
67193;SDS011;54121;53.508;49.422;2023-03-01T19:36:22;12.87;;;5.67;;
67193;SDS011;54121;53.508;49.422;2023-03-01T19:38:58;2.72;;;1.25;;
67193;SDS011;54121;53.508;49.422;2023-03-01T19:41:25;1.02;;;0.60;;
67193;SDS011;54121;53.508;49.422;2023-03-01T19:43:52;1.80;;;0.77;;
67193;SDS011;54121;53.508;49.422;2023-03-01T19:46:19;7.05;;;1.98;;
67193;SDS011;54121;53.508;49.422;2023-03-01T19:48:46;0.88;;;0.55;;
67193;SDS011;54121;53.508;49.422;2023-03-01T19:51:12;4.10;;;1.73;;
67193;SDS011;54121;53.508;49.422;2023-03-01T19:53:39;6.25;;;1.80;;
67193;SDS011;54121;53.508;49.422;2023-03-01T19:56:06;0.85;;;0.63;;
67193;SDS011;54121;53.508;49.422;2023-03-01T19:58:34;3.13;;;0.95;;
67193;SDS011;54121;53.508;49.422;2023-03-01T20:01:01;3.28;;;0.98;;
67193;SDS011;54121;53.508;49.422;2023-03-01T20:03:29;4.05;;;0.95;;
67193;SDS011;54121;53.508;49.422;2023-03-01T20:05:58;2.88;;;0.45;;
67193;SDS011;54121;53.508;49.422;2023-03-01T20:08:28;0.90;;;0.37;;
67193;SDS011;54121;53.508;49.422;2023-03-01T20:11:01;2.53;;;0.50;;
67193;SDS011;54121;53.508;49.422;2023-03-01T20:13:32;3.13;;;0.82;;
67193;SDS011;54121;53.508;49.422;2023-03-01T20:16:00;1.55;;;0.82;;
67193;SDS011;54121;53.508;49.422;2023-03-01T20:18:27;2.38;;;0.60;;
67193;SDS011;54121;53.508;49.422;2023-03-01T20:20:54;1.23;;;0.68;;
67193;SDS011;54121;53.508;49.422;2023-03-01T20:23:21;4.53;;;1.00;;
67193;SDS011;54121;53.508;49.422;2023-03-01T20:25:48;1.00;;;0.70;;
67193;SDS011;54121;53.508;49.422;2023-03-01T20:28:15;3.03;;;0.38;;
67193;SDS011;54121;53.508;49.422;2023-03-01T20:30:44;4.03;;;0.70;;
67193;SDS011;54121;53.508;49.422;2023-03-01T20:33:11;1.48;;;0.63;;
67193;SDS011;54121;53.508;49.422;2023-03-01T20:35:41;2.58;;;0.70;;
67193;SDS011;54121;53.508;49.422;2023-03-01T20:38:08;1.65;;;0.80;;
67193;SDS011;54121;53.508;49.422;2023-03-01T20:40:35;1.80;;;0.70;;
67193;SDS011;54121;53.508;49.422;2023-03-01T20:43:02;4.15;;;0.80;;
67193;SDS011;54121;53.508;49.422;2023-03-01T20:45:29;3.58;;;0.98;;
67193;SDS011;54121;53.508;49.422;2023-03-01T20:47:56;1.70;;;0.65;;
67193;SDS011;54121;53.508;49.422;2023-03-01T20:50:23;1.30;;;0.50;;
67193;SDS011;54121;53.508;49.422;2023-03-01T20:52:49;3.58;;;0.95;;
67193;SDS011;54121;53.508;49.422;2023-03-01T20:55:16;2.83;;;0.57;;
67193;SDS011;54121;53.508;49.422;2023-03-01T20:57:43;3.63;;;0.98;;
67193;SDS011;54121;53.508;49.422;2023-03-01T21:00:11;4.13;;;0.65;;
67193;SDS011;54121;53.508;49.422;2023-03-01T21:02:38;2.78;;;0.47;;
67193;SDS011;54121;53.508;49.422;2023-03-01T21:05:05;5.63;;;0.80;;
67193;SDS011;54121;53.508;49.422;2023-03-01T21:07:32;1.83;;;0.65;;
67193;SDS011;54121;53.508;49.422;2023-03-01T21:09:59;2.35;;;0.52;;
67193;SDS011;54121;53.508;49.422;2023-03-01T21:12:25;2.72;;;0.65;;
67193;SDS011;54121;53.508;49.422;2023-03-01T21:14:52;1.65;;;0.65;;
67193;SDS011;54121;53.508;49.422;2023-03-01T21:17:18;0.88;;;0.30;;
67193;SDS011;54121;53.508;49.422;2023-03-01T21:19:45;1.38;;;0.32;;
67193;SDS011;54121;53.508;49.422;2023-03-01T21:22:13;1.65;;;0.50;;